createdAt,value
2019-03-09T00:04:00.505Z,3.93
2019-03-09T00:06:48.770Z,6.20
2019-03-09T00:09:37.054Z,1.73
2019-03-09T00:12:25.281Z,4.30
2019-03-09T00:15:13.495Z,2.77
2019-03-09T00:18:01.902Z,6.00
2019-03-09T00:20:50.135Z,3.17
2019-03-09T00:23:40.448Z,4.93
2019-03-09T00:26:48.389Z,7.37
2019-03-09T00:29:55.620Z,2.77
2019-03-09T00:32:44.223Z,7.57
2019-03-09T00:35:32.735Z,6.00
2019-03-09T00:38:21.048Z,2.37
2019-03-09T00:41:09.266Z,5.60
2019-03-09T00:43:57.504Z,5.13
2019-03-09T00:46:45.733Z,5.60
2019-03-09T00:49:34.218Z,4.93
2019-03-09T00:52:22.724Z,6.73
2019-03-09T00:58:39.172Z,4.40
2019-03-09T01:01:27.394Z,6.13
2019-03-09T01:04:15.627Z,2.40
2019-03-09T01:07:03.968Z,5.50
2019-03-09T01:09:52.839Z,9.53
2019-03-09T01:12:41.376Z,2.17
2019-03-09T01:15:29.585Z,8.80
2019-03-09T01:18:17.823Z,4.87
2019-03-09T01:21:06.043Z,6.00
2019-03-09T01:23:54.280Z,2.57
2019-03-09T01:26:42.495Z,4.47
2019-03-09T01:29:30.730Z,3.70
2019-03-09T01:32:19.031Z,5.87
2019-03-09T01:35:07.276Z,5.93
2019-03-09T01:37:55.549Z,2.20
2019-03-09T01:40:43.750Z,3.77
2019-03-09T01:43:31.978Z,7.93
2019-03-09T01:46:20.454Z,1.97
2019-03-09T01:49:08.947Z,7.00
2019-03-09T01:51:57.162Z,6.43
2019-03-09T01:54:45.724Z,3.07
2019-03-09T01:57:33.932Z,5.53
2019-03-09T02:00:03.179Z,5.90
2019-03-09T02:02:51.415Z,6.10
2019-03-09T02:05:39.633Z,4.40
2019-03-09T02:08:20.510Z,5.73
2019-03-09T02:11:01.588Z,5.60
2019-03-09T02:13:42.599Z,4.87
2019-03-09T02:16:23.014Z,5.80
2019-03-09T02:19:04.316Z,7.57
2019-03-09T02:21:45.466Z,8.57
2019-03-09T02:24:26.199Z,2.60
2019-03-09T02:27:06.840Z,5.97
2019-03-09T02:29:47.488Z,6.13
2019-03-09T02:32:28.401Z,9.93
2019-03-09T02:35:09.303Z,18.47
2019-03-09T02:37:50.139Z,3.30
2019-03-09T02:40:30.664Z,3.93
2019-03-09T02:43:11.385Z,2.00
2019-03-09T02:45:52.195Z,4.23
2019-03-09T02:48:32.974Z,4.17
2019-03-09T02:51:13.880Z,7.70
2019-03-09T02:53:54.671Z,6.87
2019-03-09T02:56:35.360Z,4.43
2019-03-09T02:59:16.055Z,6.73
2019-03-09T03:02:01.318Z,4.30
2019-03-09T03:04:42.056Z,3.63
2019-03-09T03:07:22.665Z,11.50
2019-03-09T03:10:04.092Z,6.13
2019-03-09T03:12:44.485Z,3.67
2019-03-09T03:15:25.470Z,3.93
2019-03-09T03:18:06.558Z,4.63
2019-03-09T03:20:47.951Z,6.83
2019-03-09T03:23:28.586Z,6.20
2019-03-09T03:26:09.567Z,7.00
2019-03-09T03:28:50.050Z,3.27
2019-03-09T03:31:31.272Z,9.57
2019-03-09T03:34:12.297Z,5.10
2019-03-09T03:36:52.677Z,3.73
2019-03-09T03:39:33.438Z,5.40
2019-03-09T03:42:14.568Z,3.10
2019-03-09T03:44:55.274Z,8.27
2019-03-09T03:47:36.092Z,6.50
2019-03-09T03:50:16.783Z,6.93
2019-03-09T03:52:57.680Z,4.30
2019-03-09T03:55:38.421Z,3.00
2019-03-09T03:58:19.135Z,5.87
2019-03-09T04:01:00.174Z,2.97
2019-03-09T04:03:40.861Z,3.93
2019-03-09T04:06:21.912Z,3.20
2019-03-09T04:09:02.697Z,3.63
2019-03-09T04:11:43.943Z,5.57
2019-03-09T04:14:13.061Z,3.57
2019-03-09T04:16:42.169Z,4.63
2019-03-09T04:19:30.387Z,2.80
2019-03-09T04:22:18.571Z,6.93
2019-03-09T04:25:06.787Z,3.90
2019-03-09T04:27:55.245Z,5.60
2019-03-09T04:30:43.466Z,4.37
2019-03-09T04:33:31.656Z,3.37
2019-03-09T04:36:19.876Z,3.50
2019-03-09T04:39:08.063Z,7.27
2019-03-09T04:41:56.287Z,9.77
2019-03-09T04:44:37.032Z,7.00
2019-03-09T04:47:17.977Z,1.50
2019-03-09T04:49:58.703Z,3.00
2019-03-09T04:52:39.874Z,2.30
2019-03-09T04:55:20.437Z,4.00
2019-03-09T04:58:00.910Z,2.40
2019-03-09T05:00:41.707Z,4.10
2019-03-09T05:03:22.818Z,1.70
2019-03-09T05:06:03.939Z,2.50
2019-03-09T05:08:45.222Z,2.50
2019-03-09T05:11:25.816Z,2.93
2019-03-09T05:17:19.463Z,1.67
2019-03-09T05:19:59.916Z,0.83
2019-03-09T05:22:40.659Z,3.63
2019-03-09T05:25:21.386Z,3.33
2019-03-09T05:28:02.201Z,1.40
2019-03-09T05:30:43.152Z,3.10
2019-03-09T05:33:23.674Z,6.30
2019-03-09T05:36:04.605Z,1.30
2019-03-09T05:38:45.143Z,3.13
2019-03-09T05:41:26.135Z,1.27
2019-03-09T05:44:06.975Z,2.37
2019-03-09T05:46:47.646Z,1.83
2019-03-09T05:49:28.591Z,1.83
2019-03-09T05:52:09.418Z,2.97
2019-03-09T05:54:50.084Z,1.23
2019-03-09T05:57:30.888Z,1.90
2019-03-09T06:00:11.615Z,3.00
2019-03-09T06:02:52.447Z,6.47
2019-03-09T06:05:33.140Z,1.70
2019-03-09T06:08:13.855Z,1.90
2019-03-09T06:10:54.788Z,3.00
2019-03-09T06:13:35.728Z,1.53
2019-03-09T06:16:16.301Z,3.30
2019-03-09T06:18:56.990Z,1.47
2019-03-09T06:21:37.827Z,4.10
2019-03-09T06:24:18.563Z,0.90
2019-03-09T06:26:59.455Z,1.30
2019-03-09T06:29:40.107Z,1.40
2019-03-09T06:32:20.895Z,2.20
2019-03-09T06:35:01.903Z,1.20
2019-03-09T06:37:42.958Z,1.63
2019-03-09T06:40:23.554Z,0.67
2019-03-09T06:46:03.604Z,0.97
2019-03-09T06:48:44.580Z,1.50
2019-03-09T06:51:25.218Z,1.00
2019-03-09T06:54:04.494Z,0.73
2019-03-09T06:56:52.695Z,0.93
2019-03-09T06:59:41.211Z,1.23
2019-03-09T07:02:29.394Z,3.40
2019-03-09T07:05:17.880Z,8.10
2019-03-09T07:08:06.086Z,2.43
2019-03-09T07:10:54.933Z,0.70
2019-03-09T07:13:52.082Z,1.60
2019-03-09T07:16:33.075Z,1.03
2019-03-09T07:19:21.295Z,1.23
2019-03-09T07:22:09.522Z,0.97
2019-03-09T07:24:57.735Z,1.20
2019-03-09T07:31:00.375Z,1.80
2019-03-09T07:33:41.140Z,0.80
2019-03-09T07:36:22.510Z,1.17
2019-03-09T07:39:03.836Z,1.33
2019-03-09T07:41:45.194Z,1.93
2019-03-09T07:44:26.413Z,1.70
2019-03-09T07:47:07.546Z,1.20
2019-03-09T07:49:47.926Z,1.17
2019-03-09T07:52:29.002Z,1.37
2019-03-09T07:55:10.111Z,0.77
2019-03-09T07:57:50.672Z,0.80
2019-03-09T08:00:31.596Z,1.47
2019-03-09T08:03:13.456Z,2.50
2019-03-09T08:05:54.502Z,1.63
2019-03-09T08:08:35.359Z,1.27
2019-03-09T08:11:16.383Z,1.37
2019-03-09T08:13:56.847Z,1.27
2019-03-09T08:16:38.062Z,1.03
2019-03-09T08:19:19.308Z,1.00
2019-03-09T08:21:48.424Z,4.63
2019-03-09T08:24:36.641Z,2.60
2019-03-09T08:27:24.863Z,1.40
2019-03-09T08:30:14.272Z,1.37
2019-03-09T08:32:43.390Z,1.07
2019-03-09T08:35:31.602Z,1.63
2019-03-09T08:38:19.811Z,1.57
2019-03-09T08:41:08.048Z,1.47
2019-03-09T08:43:56.297Z,1.50
2019-03-09T08:46:44.506Z,1.57
2019-03-09T08:49:33.031Z,1.40
2019-03-09T08:52:21.233Z,1.53
2019-03-09T08:55:09.569Z,1.30
2019-03-09T08:57:38.669Z,1.67
2019-03-09T09:00:30.064Z,2.93
2019-03-09T09:03:17.780Z,2.27
2019-03-09T09:06:06.106Z,1.80
2019-03-09T09:08:54.310Z,2.10
2019-03-09T09:11:42.524Z,2.90
2019-03-09T09:14:31.020Z,1.47
2019-03-09T09:17:19.243Z,1.93
2019-03-09T09:20:08.630Z,2.43
2019-03-09T09:22:56.918Z,5.63
2019-03-09T09:25:45.148Z,1.77
2019-03-09T09:28:33.663Z,2.60
2019-03-09T09:31:21.879Z,2.27
2019-03-09T09:34:03.283Z,2.13
2019-03-09T09:36:43.820Z,2.00
2019-03-09T09:39:24.378Z,1.80
2019-03-09T09:42:05.502Z,1.63
2019-03-09T09:44:46.505Z,1.90
2019-03-09T09:47:27.262Z,2.23
2019-03-09T09:50:08.557Z,2.23
2019-03-09T09:52:49.773Z,2.00
2019-03-09T09:55:30.907Z,2.87
2019-03-09T09:58:11.360Z,2.27
2019-03-09T10:00:52.048Z,2.80
2019-03-09T10:03:33.418Z,2.80
2019-03-09T10:06:13.861Z,2.27
2019-03-09T10:08:55.043Z,3.13
2019-03-09T10:11:36.268Z,4.03
2019-03-09T10:14:05.750Z,2.97
2019-03-09T10:16:54.021Z,5.30
2019-03-09T10:19:42.258Z,4.03
2019-03-09T10:22:30.459Z,3.60
2019-03-09T10:25:18.687Z,4.23
2019-03-09T10:28:06.916Z,4.37
2019-03-09T10:30:55.682Z,4.23
2019-03-09T10:33:36.599Z,4.33
2019-03-09T10:36:17.990Z,4.73
2019-03-09T10:38:58.522Z,4.43
2019-03-09T10:41:39.813Z,5.10
2019-03-09T10:44:20.692Z,4.00
2019-03-09T10:47:01.682Z,2.43
2019-03-09T10:49:42.454Z,4.00
2019-03-09T10:52:23.343Z,3.30
2019-03-09T10:55:04.296Z,3.30
2019-03-09T10:57:45.032Z,2.83
2019-03-09T11:00:25.582Z,3.27
2019-03-09T11:03:06.134Z,2.90
2019-03-09T11:05:47.245Z,3.57
2019-03-09T11:08:28.206Z,2.20
2019-03-09T11:11:08.878Z,2.47
2019-03-09T11:13:52.210Z,2.70
2019-03-09T11:16:32.487Z,2.30
2019-03-09T11:19:13.215Z,2.80
2019-03-09T11:21:54.013Z,2.53
2019-03-09T11:24:34.771Z,3.13
2019-03-09T11:27:15.766Z,3.07
2019-03-09T11:29:57.072Z,2.77
2019-03-09T11:32:26.495Z,2.50
2019-03-09T11:35:07.002Z,3.73
2019-03-09T11:37:48.220Z,2.43
2019-03-09T11:40:29.202Z,4.67
2019-03-09T11:43:10.306Z,2.90
2019-03-09T11:45:50.870Z,2.53
2019-03-09T11:48:31.617Z,2.13
2019-03-09T11:51:12.180Z,2.20
2019-03-09T11:53:52.988Z,2.10
2019-03-09T11:56:34.031Z,4.20
2019-03-09T11:59:14.687Z,2.07
2019-03-09T12:01:55.368Z,2.90
2019-03-09T12:04:46.025Z,2.30
2019-03-09T12:07:19.148Z,2.30
2019-03-09T12:09:59.908Z,3.33
2019-03-09T12:12:41.226Z,3.33
2019-03-09T12:15:22.097Z,2.00
2019-03-09T12:18:03.189Z,2.43
2019-03-09T12:20:44.454Z,9.13
2019-03-09T12:23:25.329Z,2.30
2019-03-09T12:26:06.215Z,2.40
2019-03-09T12:28:47.502Z,2.80
2019-03-09T12:31:28.663Z,4.87
2019-03-09T12:34:09.253Z,3.27
2019-03-09T12:36:50.481Z,3.80
2019-03-09T12:39:31.821Z,2.93
2019-03-09T12:42:12.467Z,3.40
2019-03-09T12:44:53.033Z,2.87
2019-03-09T12:47:33.731Z,2.50
2019-03-09T12:50:14.515Z,6.43
2019-03-09T12:52:55.067Z,6.03
2019-03-09T12:55:36.422Z,3.47
2019-03-09T12:58:05.536Z,2.93
2019-03-09T13:00:53.746Z,3.63
2019-03-09T13:03:42.501Z,2.30
2019-03-09T13:06:30.717Z,2.33
2019-03-09T13:09:18.949Z,1.13
2019-03-09T13:12:08.815Z,1.30
2019-03-09T13:14:57.366Z,1.43
2019-03-09T13:17:45.580Z,1.00
2019-03-09T13:20:33.799Z,1.70
2019-03-09T13:23:22.001Z,2.40
2019-03-09T13:26:10.218Z,4.13
2019-03-09T13:28:58.424Z,1.07
2019-03-09T13:31:46.660Z,1.23
2019-03-09T13:34:34.912Z,1.20
2019-03-09T13:37:23.126Z,2.10
2019-03-09T13:40:11.451Z,2.37
2019-03-09T13:42:59.683Z,1.30
2019-03-09T13:45:47.945Z,1.30
2019-03-09T13:48:36.179Z,3.60
2019-03-09T13:51:24.653Z,1.57
2019-03-09T13:54:12.872Z,1.40
2019-03-09T13:57:01.362Z,3.40
2019-03-09T13:59:49.829Z,1.70
2019-03-09T14:02:38.061Z,1.30
2019-03-09T14:05:26.263Z,0.70
2019-03-09T14:08:14.496Z,1.00
2019-03-09T14:11:02.715Z,1.27
2019-03-09T14:13:50.933Z,2.40
2019-03-09T14:16:39.131Z,1.23
2019-03-09T14:19:20.092Z,1.90
2019-03-09T14:22:00.898Z,1.07
2019-03-09T14:24:41.715Z,1.20
2019-03-09T14:27:22.868Z,1.33
2019-03-09T14:30:03.931Z,0.67
2019-03-09T14:32:44.846Z,0.90
2019-03-09T14:35:25.887Z,0.80
2019-03-09T14:38:06.962Z,0.83
2019-03-09T14:40:47.739Z,0.60
2019-03-09T14:43:28.635Z,0.93
2019-03-09T14:46:09.451Z,0.60
2019-03-09T14:48:50.291Z,1.33
2019-03-09T14:51:31.166Z,0.67
2019-03-09T14:54:11.612Z,0.70
2019-03-09T14:56:53.048Z,1.23
2019-03-09T14:59:33.497Z,1.17
2019-03-09T15:02:14.545Z,1.00
2019-03-09T15:04:55.626Z,0.90
2019-03-09T15:07:36.994Z,0.70
2019-03-09T15:10:20.100Z,1.37
2019-03-09T15:13:02.358Z,1.20
2019-03-09T15:18:30.138Z,3.30
2019-03-09T15:21:10.759Z,2.83
2019-03-09T15:23:51.178Z,2.60
2019-03-09T15:26:32.084Z,2.73
2019-03-09T15:29:12.955Z,0.70
2019-03-09T15:31:53.638Z,1.03
2019-03-09T15:34:34.463Z,2.03
2019-03-09T15:37:15.031Z,1.17
2019-03-09T15:39:55.557Z,1.00
2019-03-09T15:42:36.622Z,1.80
2019-03-09T15:45:17.310Z,3.93
2019-03-09T15:47:58.250Z,1.50
2019-03-09T15:50:39.126Z,0.90
2019-03-09T15:53:21.079Z,1.43
2019-03-09T15:58:58.731Z,2.57
2019-03-09T16:01:43.374Z,2.93
2019-03-09T16:04:24.446Z,0.60
2019-03-09T16:07:05.208Z,0.97
2019-03-09T16:09:46.638Z,2.40
2019-03-09T16:12:27.587Z,3.50
2019-03-09T16:15:08.726Z,2.10
2019-03-09T16:17:49.271Z,1.80
2019-03-09T16:20:29.698Z,1.20
2019-03-09T16:22:58.933Z,1.63
2019-03-09T16:25:47.463Z,3.03
2019-03-09T16:28:35.697Z,1.10
2019-03-09T16:31:24.277Z,1.63
2019-03-09T16:34:12.799Z,3.53
2019-03-09T16:37:01.030Z,2.10
2019-03-09T16:39:49.223Z,1.57
2019-03-09T16:42:37.448Z,3.57
2019-03-09T16:45:25.935Z,2.00
2019-03-09T16:48:14.470Z,3.00
2019-03-09T16:51:02.687Z,5.73
2019-03-09T16:53:50.882Z,2.83
2019-03-09T16:56:39.112Z,3.97
2019-03-09T17:02:16.598Z,2.47
2019-03-09T17:05:04.950Z,2.43
2019-03-09T17:07:53.463Z,4.07
2019-03-09T17:10:41.667Z,2.13
2019-03-09T17:13:29.912Z,3.63
2019-03-09T17:16:18.486Z,2.37
2019-03-09T17:19:06.762Z,3.63
2019-03-09T17:21:54.986Z,4.57
2019-03-09T17:24:43.200Z,3.73
2019-03-09T17:27:31.418Z,3.60
2019-03-09T17:30:19.623Z,4.60
2019-03-09T17:33:07.859Z,7.83
2019-03-09T17:35:56.070Z,2.03
2019-03-09T17:38:44.647Z,1.83
2019-03-09T17:41:32.853Z,4.53
2019-03-09T17:44:21.318Z,3.70
2019-03-09T17:47:09.568Z,5.33
2019-03-09T17:49:57.787Z,3.73
2019-03-09T17:52:46.027Z,6.50
2019-03-09T17:55:34.228Z,9.33
2019-03-09T18:01:24.477Z,6.30
2019-03-09T18:04:12.694Z,6.40
2019-03-09T18:07:00.931Z,7.10
2019-03-09T18:09:41.665Z,3.47
2019-03-09T18:12:22.445Z,9.30
2019-03-09T18:15:03.254Z,7.97
2019-03-09T18:17:43.995Z,8.00
2019-03-09T18:20:24.841Z,6.47
2019-03-09T18:23:05.783Z,8.77
2019-03-09T18:25:46.314Z,4.47
2019-03-09T18:28:27.438Z,5.30
2019-03-09T18:31:08.225Z,4.23
2019-03-09T18:33:48.906Z,8.77
2019-03-09T18:36:29.450Z,6.23
2019-03-09T18:39:10.987Z,5.60
2019-03-09T18:41:51.656Z,6.20
2019-03-09T18:44:32.849Z,8.30
2019-03-09T18:47:13.769Z,8.00
2019-03-09T18:49:54.912Z,7.53
2019-03-09T18:52:35.896Z,5.33
2019-03-09T18:55:25.564Z,4.30
2019-03-09T18:58:14.042Z,8.20
2019-03-09T19:01:02.234Z,5.87
2019-03-09T19:03:50.719Z,8.83
2019-03-09T19:06:38.923Z,4.83
2019-03-09T19:09:27.156Z,4.70
2019-03-09T19:12:15.351Z,9.20
2019-03-09T19:15:03.583Z,4.53
2019-03-09T19:17:52.031Z,7.20
2019-03-09T19:20:40.729Z,8.97
2019-03-09T19:23:28.959Z,8.07
2019-03-09T19:26:17.163Z,9.30
2019-03-09T19:29:05.904Z,7.23
2019-03-09T19:31:54.097Z,8.30
2019-03-09T19:34:42.315Z,4.77
2019-03-09T19:37:30.514Z,8.80
2019-03-09T19:40:18.719Z,9.30
2019-03-09T19:42:59.746Z,16.90
2019-03-09T19:45:40.601Z,8.63
2019-03-09T19:48:21.677Z,7.87
2019-03-09T19:51:02.563Z,14.17
2019-03-09T19:53:43.244Z,8.00
2019-03-09T19:56:24.204Z,9.27
2019-03-09T19:59:04.760Z,9.67
2019-03-09T20:01:33.875Z,11.50
2019-03-09T20:04:22.087Z,7.87
2019-03-09T20:07:10.544Z,8.70
2019-03-09T20:09:58.763Z,10.70
2019-03-09T20:12:46.947Z,9.77
2019-03-09T20:15:16.977Z,13.70
2019-03-09T20:18:05.180Z,10.90
2019-03-09T20:20:53.617Z,12.53
2019-03-09T20:23:42.054Z,9.20
2019-03-09T20:26:11.419Z,8.60
2019-03-09T20:28:59.617Z,10.47
2019-03-09T20:31:47.829Z,5.10
2019-03-09T20:34:36.041Z,14.63
2019-03-09T20:37:24.239Z,7.33
2019-03-09T20:40:12.481Z,9.13
2019-03-09T20:42:53.515Z,10.70
2019-03-09T20:45:34.721Z,15.30
2019-03-09T20:48:15.570Z,10.67
2019-03-09T20:50:56.273Z,12.60
2019-03-09T20:53:37.191Z,11.93
2019-03-09T20:56:18.116Z,15.57
2019-03-09T20:58:58.962Z,10.03
2019-03-09T21:01:39.666Z,14.20
2019-03-09T21:04:22.012Z,13.13
2019-03-09T21:07:03.307Z,10.67
2019-03-09T21:09:44.002Z,9.40
2019-03-09T21:12:24.972Z,6.67
2019-03-09T21:15:05.493Z,8.97
2019-03-09T21:17:46.796Z,10.90
2019-03-09T21:20:29.104Z,8.00
2019-03-09T21:23:10.019Z,8.27
2019-03-09T21:25:51.033Z,15.07
2019-03-09T21:28:31.860Z,21.57
2019-03-09T21:31:12.275Z,10.70
2019-03-09T21:33:53.591Z,12.43
2019-03-09T21:36:34.105Z,13.53
2019-03-09T21:39:15.586Z,13.00
2019-03-09T21:41:56.138Z,14.20
2019-03-09T21:44:37.242Z,11.63
2019-03-09T21:47:17.698Z,16.10
2019-03-09T21:49:58.262Z,10.10
2019-03-09T21:52:39.163Z,10.93
2019-03-09T21:55:20.322Z,12.63
2019-03-09T21:58:01.353Z,18.77
2019-03-09T22:00:42.789Z,10.43
2019-03-09T22:03:24.030Z,11.60
2019-03-09T22:06:06.310Z,12.67
2019-03-09T22:08:46.935Z,11.40
2019-03-09T22:11:27.722Z,11.53
2019-03-09T22:14:08.854Z,10.57
2019-03-09T22:16:56.634Z,11.30
2019-03-09T22:19:20.722Z,14.50
2019-03-09T22:22:08.936Z,13.87
2019-03-09T22:24:57.144Z,14.37
2019-03-09T22:27:45.370Z,10.63
2019-03-09T22:30:33.881Z,9.67
2019-03-09T22:33:22.155Z,16.77
2019-03-09T22:36:10.375Z,15.53
2019-03-09T22:38:58.574Z,9.40
2019-03-09T22:41:46.782Z,18.83
2019-03-09T22:44:34.988Z,12.83
2019-03-09T22:47:23.214Z,14.77
2019-03-09T22:50:12.057Z,16.73
2019-03-09T22:53:00.310Z,14.30
2019-03-09T22:55:48.540Z,11.13
2019-03-09T22:58:36.998Z,14.47
2019-03-09T23:01:25.289Z,21.07
2019-03-09T23:04:06.748Z,16.50
2019-03-09T23:06:47.491Z,11.27
2019-03-09T23:09:29.394Z,17.93
2019-03-09T23:12:10.323Z,12.97
2019-03-09T23:14:50.898Z,12.63
2019-03-09T23:20:30.528Z,12.63
2019-03-09T23:23:11.620Z,14.10
2019-03-09T23:25:52.746Z,16.57
2019-03-09T23:28:33.168Z,14.77
2019-03-09T23:31:14.368Z,11.20
2019-03-09T23:33:55.248Z,11.37
2019-03-09T23:36:35.603Z,12.33
2019-03-09T23:39:17.320Z,18.17
2019-03-09T23:41:58.218Z,14.63
2019-03-09T23:44:39.146Z,13.83
2019-03-09T23:47:19.994Z,15.70
2019-03-09T23:50:00.917Z,18.13
2019-03-09T23:52:41.714Z,9.63
2019-03-09T23:55:23.222Z,15.80
2019-03-09T23:58:04.405Z,17.60
